Alma Center, Wisconsin
Current Conditions -  °F | °C
As of 11:55 AM on Friday 28 Nov 2014 (Local Time) from KBCK Reporting Station
Scattered Clouds Scattered Clouds  
Wind Chill: 16°   Ceiling: Unl
Heat Index: 25°   Visibility: 10mi
Dew Point: 13°   Wind: 8mph
Humidity: 61%   Direction: 160°SSE
Pressure: 29.99"   Gusts: NA
Location:  44.44°N, 90.91°W
Report Text: KBCK 281755Z AUTO 16007KT 10SM SCT025 M04/M10 A2999 RMK AO2 T10381103 11038 21108
Loading
Personal Weather Stations






























Interactive Weather Map New forecast layout! Learn more

10-Day Weather Forecast

Advertisements
Track Severe Weather on mobile